This is the latest recevied weather packets stored in our database for station/object UA1CAS-13. If no packets are shown the sender has not sent any weather packets the latest 10 day(s).
| Time | Temp. | Humidity | Pressure | Rain* | Wind** | Luminosity | Snow |
|---|---|---|---|---|---|---|---|
| 1777352574 | 5° C | 62% | 1007 hPa | - | - | - | - |
| 1777351673 | 5° C | 60% | 1007 hPa | - | - | - | - |
| 1777350772 | 4.44° C | 61% | 1007 hPa | - | - | - | - |
| 1777349871 | 6.67° C | 56% | 1006 hPa | - | - | - | - |
| 1777348970 | 6.67° C | 56% | 1006 hPa | - | - | - | - |
| 1777348069 | 5.56° C | 60% | 1006 hPa | - | - | - | - |
| 1777347168 | 5° C | 63% | 1006 hPa | - | - | - | - |
| 1777346267 | 3.89° C | 66% | 1007 hPa | - | - | - | - |
| 1777344465 | 3.33° C | 69% | 1007 hPa | - | - | - | - |
| 1777343564 | 3.33° C | 69% | 1007 hPa | - | - | - | - |
| 1777342663 | 3.33° C | 68% | 1007 hPa | - | - | - | - |
| 1777341762 | 3.33° C | 68% | 1007 hPa | - | - | - | - |
| 1777339959 | 3.33° C | 66% | 1007 hPa | - | - | - | - |
| 1777339058 | 3.33° C | 66% | 1007 hPa | - | - | - | - |
| 1777312916 | 6.67° C | 49% | 1006 hPa | - | - | - | - |
| 1777311114 | 7.22° C | 47% | 1006 hPa | - | - | - | - |
| 1777310213 | 7.22° C | 47% | 1006 hPa | - | - | - | - |
| 1777309312 | 7.22° C | 47% | 1006 hPa | - | - | - | - |
| 1777308411 | 7.78° C | 46% | 1006 hPa | - | - | - | - |
| 1777307510 | 7.78° C | 45% | 1006 hPa | - | - | - | - |
| 1777305707 | 8.33° C | 41% | 1006 hPa | - | - | - | - |
| 1777304806 | 8.33° C | 44% | 1006 hPa | - | - | - | - |
| 1777303905 | 9.44° C | 42% | 1005 hPa | - | - | - | - |
| 1777300301 | 10° C | 37% | 1005 hPa | - | - | - | - |
| 1777299400 | 13.89° C | 32% | 1005 hPa | - | - | - | - |
* Rain since midnight (hover to see other rain measurements)
** Current wind speed in m/s (hover to see current wind gust speed)